Time;durP1;ratioP1;P1;durP2;ratioP2;P2;SDS_P1;SDS_P2;PMS_P1;PMS_P2;Temp;Humidity;BMP_temperature;BMP_pressure;BME280_temperature;BME280_humidity;BME280_pressure;Samples;Min_cycle;Max_cycle;Signal;HPM_P1;HPM_P2
2023/06/14 00:00:52;;;;;;;5.50;4.27;;;14.70;99.90;;;;;;5015896;28;20186;-34
2023/06/14 00:03:21;;;;;;;7.20;4.50;;;14.60;99.90;;;;;;5016085;28;20189;-32
2023/06/14 00:05:48;;;;;;;7.47;4.40;;;14.60;99.90;;;;;;5032064;28;20220;-33
2023/06/14 00:08:14;;;;;;;5.53;4.17;;;14.70;99.90;;;;;;5012198;28;20245;-35
2023/06/14 00:10:43;;;;;;;4.30;3.87;;;14.70;99.90;;;;;;5012486;28;20181;-34
2023/06/14 00:13:09;;;;;;;5.30;4.33;;;14.70;99.90;;;;;;5012447;28;20640;-34
2023/06/14 00:15:38;;;;;;;4.57;4.00;;;14.70;99.90;;;;;;5016113;28;20187;-32
2023/06/14 00:18:05;;;;;;;7.83;4.60;;;14.70;99.90;;;;;;5012396;28;20227;-35
2023/06/14 00:20:33;;;;;;;5.17;4.13;;;14.70;99.90;;;;;;5015433;28;20187;-36
2023/06/14 00:23:00;;;;;;;6.57;4.50;;;14.60;99.90;;;;;;5024176;28;20265;-33
2023/06/14 00:25:26;;;;;;;4.63;4.03;;;14.50;99.90;;;;;;5031308;28;20182;-36
2023/06/14 00:27:52;;;;;;;4.97;4.43;;;14.50;99.90;;;;;;5011382;28;20205;-33
2023/06/14 00:30:18;;;;;;;4.90;4.23;;;14.40;99.90;;;;;;5014902;28;20305;-34
2023/06/14 00:32:45;;;;;;;5.30;4.33;;;14.30;99.90;;;;;;5021929;28;20221;-33
2023/06/14 00:35:11;;;;;;;5.10;4.43;;;14.30;99.90;;;;;;5025439;28;20175;-33
2023/06/14 00:37:37;;;;;;;5.33;4.50;;;14.20;99.90;;;;;;5032010;28;20209;-32
2023/06/14 00:40:04;;;;;;;5.37;4.10;;;14.10;99.90;;;;;;5014362;28;20266;-32
2023/06/14 00:42:31;;;;;;;5.40;3.97;;;14.00;99.90;;;;;;5031536;28;20183;-34
2023/06/14 00:44:57;;;;;;;6.57;4.20;;;14.00;99.90;;;;;;5024288;28;20174;-35
2023/06/14 00:47:24;;;;;;;7.13;4.77;;;13.90;99.90;;;;;;5024306;28;20203;-34
2023/06/14 00:49:52;;;;;;;6.30;4.93;;;13.80;99.90;;;;;;5015127;28;20299;-35
2023/06/14 00:52:18;;;;;;;5.70;4.67;;;13.90;99.90;;;;;;5022997;28;20178;-32
2023/06/14 00:54:44;;;;;;;5.10;4.60;;;13.90;99.90;;;;;;5031364;28;20186;-34
2023/06/14 00:57:11;;;;;;;5.63;4.60;;;14.00;99.90;;;;;;5027868;28;20203;-32
2023/06/14 00:59:47;;;;;;;5.10;4.60;;;14.00;99.90;;;;;;5027913;28;20187;-32
2023/06/14 01:02:17;;;;;;;5.53;4.40;;;14.00;99.90;;;;;;5016961;28;20200;-35
2023/06/14 01:04:48;;;;;;;5.17;4.30;;;14.00;99.90;;;;;;5012061;28;20321;-32
2023/06/14 01:07:36;;;;;;;4.97;4.47;;;13.90;99.90;;;;;;5000220;28;20231;-33
2023/06/14 01:10:05;;;;;;;5.00;4.20;;;13.80;99.90;;;;;;5027826;28;20292;-34
2023/06/14 01:12:52;;;;;;;7.17;4.93;;;13.70;99.90;;;;;;5024158;28;20186;-34
2023/06/14 01:15:20;;;;;;;7.30;4.70;;;13.60;99.90;;;;;;5022173;28;20221;-34
2023/06/14 01:17:51;;;;;;;6.87;4.63;;;13.50;99.90;;;;;;5030441;28;20211;-35
2023/06/14 01:20:20;;;;;;;5.80;4.47;;;13.40;99.90;;;;;;5039206;28;20197;-36
2023/06/14 01:22:56;;;;;;;5.37;4.30;;;13.30;99.90;;;;;;5014290;28;20187;-34
2023/06/14 01:25:23;;;;;;;8.03;4.90;;;13.30;99.90;;;;;;5008367;28;20190;-33
2023/06/14 01:27:59;;;;;;;8.57;4.50;;;13.20;99.90;;;;;;5011745;28;20416;-37
2023/06/14 01:30:26;;;;;;;4.97;4.43;;;13.20;99.90;;;;;;5022581;28;20270;-33
2023/06/14 01:32:54;;;;;;;5.77;4.70;;;13.20;99.90;;;;;;5030517;28;20181;-33
2023/06/14 01:35:21;;;;;;;5.07;4.60;;;13.10;99.90;;;;;;5026627;28;20184;-36
2023/06/14 01:37:48;;;;;;;4.73;4.07;;;13.10;99.90;;;;;;5019558;28;20198;-35
2023/06/14 01:40:16;;;;;;;6.67;5.20;;;13.00;99.90;;;;;;5026005;28;20194;-32
2023/06/14 01:42:43;;;;;;;6.33;4.77;;;13.00;99.90;;;;;;5028574;28;20189;-32
2023/06/14 01:45:10;;;;;;;4.90;4.37;;;12.90;99.90;;;;;;5030678;28;20188;-32
2023/06/14 01:47:36;;;;;;;6.80;4.50;;;12.80;99.90;;;;;;5012968;28;20208;-34
2023/06/14 01:50:05;;;;;;;5.80;4.70;;;12.80;99.90;;;;;;5001755;28;20213;-33
2023/06/14 01:52:31;;;;;;;5.60;4.30;;;12.70;99.90;;;;;;4993495;28;20183;-32
2023/06/14 01:54:58;;;;;;;5.97;4.77;;;12.70;99.90;;;;;;5005757;28;20272;-33
2023/06/14 01:57:26;;;;;;;5.40;4.90;;;12.60;99.90;;;;;;5013379;28;20210;-34
2023/06/14 01:59:52;;;;;;;6.07;4.67;;;12.70;99.90;;;;;;5029645;28;20192;-38
2023/06/14 02:02:18;;;;;;;7.53;4.97;;;12.60;99.90;;;;;;5024779;28;20209;-32
2023/06/14 02:04:46;;;;;;;5.20;4.27;;;12.60;99.90;;;;;;5028635;28;20184;-32
2023/06/14 02:07:12;;;;;;;6.23;5.07;;;12.60;99.90;;;;;;5009754;28;20211;-34
2023/06/14 02:09:41;;;;;;;5.93;4.73;;;12.60;99.90;;;;;;5003864;28;20219;-32
2023/06/14 02:12:08;;;;;;;5.27;4.43;;;12.60;99.90;;;;;;5005369;28;20210;-33
2023/06/14 02:14:34;;;;;;;7.53;4.40;;;12.60;99.90;;;;;;5015792;28;20185;-34
2023/06/14 02:17:00;;;;;;;5.50;4.37;;;12.60;99.90;;;;;;5026662;28;20221;-31
2023/06/14 02:19:27;;;;;;;5.30;4.23;;;12.60;99.90;;;;;;5025362;28;20184;-35
2023/06/14 02:21:53;;;;;;;5.97;4.40;;;12.60;99.90;;;;;;5021809;28;20238;-34
2023/06/14 02:24:19;;;;;;;6.63;4.50;;;12.60;99.90;;;;;;5029700;28;20192;-35
2023/06/14 02:26:44;;;;;;;5.10;4.57;;;12.60;99.90;;;;;;5027902;28;20209;-32
2023/06/14 02:29:14;;;;;;;5.50;4.83;;;12.50;99.90;;;;;;5024347;28;20316;-33
2023/06/14 02:31:41;;;;;;;5.57;4.60;;;12.50;99.90;;;;;;5013562;28;20202;-32
2023/06/14 02:34:08;;;;;;;6.30;4.70;;;12.50;99.90;;;;;;5016776;28;20178;-36
2023/06/14 02:36:35;;;;;;;4.60;4.20;;;12.40;99.90;;;;;;5006812;28;20211;-37
2023/06/14 02:39:01;;;;;;;6.03;4.40;;;12.40;99.90;;;;;;4993916;28;20198;-35
2023/06/14 02:41:26;;;;;;;5.37;4.67;;;12.40;99.90;;;;;;5028967;28;20277;-33
2023/06/14 02:43:53;;;;;;;5.83;5.00;;;12.30;99.90;;;;;;5029085;28;20184;-34
2023/06/14 02:46:20;;;;;;;6.23;4.60;;;12.30;99.90;;;;;;5012889;28;20211;-33
2023/06/14 02:48:49;;;;;;;8.17;4.73;;;12.30;99.90;;;;;;5003080;28;20206;-32
2023/06/14 02:51:14;;;;;;;6.00;4.30;;;12.20;99.90;;;;;;5023260;28;20194;-36
2023/06/14 02:53:40;;;;;;;5.40;4.90;;;12.20;99.90;;;;;;5012022;28;20185;-32
2023/06/14 02:56:06;;;;;;;5.60;5.10;;;12.20;99.90;;;;;;5002763;28;20236;-36
2023/06/14 02:58:33;;;;;;;6.73;4.73;;;12.10;99.90;;;;;;5012930;28;20724;-38
2023/06/14 03:01:03;;;;;;;5.83;4.93;;;12.00;99.90;;;;;;5013242;28;20180;-39
2023/06/14 03:03:29;;;;;;;6.70;4.47;;;12.00;99.90;;;;;;5006779;28;20198;-33
2023/06/14 03:05:56;;;;;;;7.50;4.63;;;11.90;99.90;;;;;;5016139;28;20222;-34
2023/06/14 03:08:28;;;;;;;5.83;4.90;;;11.90;99.90;;;;;;5031473;28;20180;-32
2023/06/14 03:10:58;;;;;;;5.20;4.70;;;11.80;99.90;;;;;;5032579;28;20195;-36
2023/06/14 03:13:26;;;;;;;5.57;5.00;;;11.70;99.90;;;;;;5032895;28;20301;-34
2023/06/14 03:15:53;;;;;;;6.63;4.40;;;11.70;99.90;;;;;;5022035;28;20187;-34
2023/06/14 03:18:22;;;;;;;6.07;4.67;;;11.60;99.90;;;;;;5013455;28;20234;-36
2023/06/14 03:20:51;;;;;;;4.90;4.40;;;11.70;99.90;;;;;;5015204;28;20236;-34
2023/06/14 03:23:17;;;;;;;5.27;4.67;;;11.70;99.90;;;;;;5016468;28;20188;-32
2023/06/14 03:25:45;;;;;;;5.63;4.67;;;11.80;99.90;;;;;;5015098;28;20186;-34
2023/06/14 03:28:12;;;;;;;6.60;4.80;;;11.70;99.90;;;;;;5025239;28;20232;-33
2023/06/14 03:30:38;;;;;;;5.67;4.50;;;11.70;99.90;;;;;;5032555;28;20210;-32
2023/06/14 03:33:06;;;;;;;5.70;5.20;;;11.80;99.90;;;;;;5006737;28;20191;-35
2023/06/14 03:35:36;;;;;;;8.43;5.30;;;11.80;99.90;;;;;;5022231;28;20226;-32
2023/06/14 03:38:03;;;;;;;7.70;5.07;;;11.80;99.90;;;;;;5004233;28;20225;-36
2023/06/14 03:40:29;;;;;;;5.43;4.93;;;11.70;99.90;;;;;;5012459;28;20183;-33
2023/06/14 03:43:01;;;;;;;5.27;4.77;;;11.70;99.90;;;;;;5032627;28;20176;-33
2023/06/14 03:45:27;;;;;;;5.80;5.23;;;11.70;99.90;;;;;;5032779;28;20174;-32
2023/06/14 03:47:54;;;;;;;6.50;4.90;;;11.60;99.90;;;;;;5016272;28;20262;-33
2023/06/14 03:50:20;;;;;;;7.47;4.93;;;11.60;99.90;;;;;;5032508;28;20322;-36
2023/06/14 03:52:48;;;;;;;6.87;4.80;;;11.50;99.90;;;;;;5032509;28;20262;-33
2023/06/14 03:55:16;;;;;;;7.37;5.23;;;11.60;99.90;;;;;;5012654;28;20207;-36
2023/06/14 03:57:42;;;;;;;5.40;4.90;;;11.60;99.90;;;;;;5013943;28;20202;-39
2023/06/14 04:00:12;;;;;;;5.17;4.67;;;11.60;99.90;;;;;;5013654;28;20181;-37
2023/06/14 04:02:43;;;;;;;7.47;5.17;;;11.60;99.90;;;;;;5029373;28;20193;-32
2023/06/14 04:05:10;;;;;;;7.47;5.13;;;11.60;99.90;;;;;;5012566;28;20176;-32
2023/06/14 04:07:44;;;;;;;7.17;5.10;;;11.60;99.90;;;;;;5016320;28;20214;-34
2023/06/14 04:10:12;;;;;;;6.00;5.07;;;11.70;99.90;;;;;;5028769;28;20257;-32
2023/06/14 04:12:38;;;;;;;5.70;4.80;;;11.80;99.90;;;;;;5007778;28;20227;-35
2023/06/14 04:15:06;;;;;;;7.47;5.47;;;11.80;99.90;;;;;;5029833;28;20207;-32
2023/06/14 04:17:35;;;;;;;5.77;5.20;;;11.90;99.90;;;;;;5015596;28;20194;-32
2023/06/14 04:20:05;;;;;;;6.33;5.20;;;12.00;99.90;;;;;;5023056;28;20175;-33
2023/06/14 04:22:31;;;;;;;5.90;5.30;;;12.00;99.90;;;;;;5012265;28;20187;-37
2023/06/14 04:24:59;;;;;;;6.90;5.10;;;12.10;99.90;;;;;;5012786;28;20245;-36
2023/06/14 04:27:30;;;;;;;5.77;4.90;;;12.10;99.90;;;;;;4995931;28;20211;-35
2023/06/14 04:29:59;;;;;;;5.47;4.90;;;12.10;99.90;;;;;;5014988;28;20208;-35
2023/06/14 04:32:33;;;;;;;7.50;5.30;;;12.20;99.90;;;;;;5031806;28;20246;-34
2023/06/14 04:35:03;;;;;;;8.73;5.10;;;12.20;99.90;;;;;;5005904;28;20183;-34
2023/06/14 04:37:31;;;;;;;8.40;5.70;;;12.30;99.90;;;;;;5016089;28;20198;-32
2023/06/14 04:39:58;;;;;;;6.27;5.67;;;12.30;99.90;;;;;;5015114;28;20192;-33
2023/06/14 04:42:29;;;;;;;7.40;5.00;;;12.40;99.90;;;;;;5018658;28;20191;-33
2023/06/14 04:44:56;;;;;;;6.67;5.63;;;12.40;99.90;;;;;;5001410;28;20186;-34
2023/06/14 04:47:29;;;;;;;7.07;5.43;;;12.40;99.90;;;;;;5013079;28;20234;-32
2023/06/14 04:50:00;;;;;;;9.77;5.23;;;12.40;99.90;;;;;;5031358;28;20280;-32
2023/06/14 04:52:30;;;;;;;6.00;5.40;;;12.50;99.90;;;;;;5023253;28;20296;-34
2023/06/14 04:54:56;;;;;;;7.17;5.50;;;12.50;99.90;;;;;;5025146;28;20167;-32
2023/06/14 04:57:25;;;;;;;5.77;5.13;;;12.50;99.90;;;;;;5027297;28;20220;-37
2023/06/14 04:59:57;;;;;;;6.47;5.40;;;12.50;99.90;;;;;;5027574;28;20192;-34
2023/06/14 05:02:25;;;;;;;6.73;5.87;;;12.50;99.90;;;;;;5012321;28;20183;-34
2023/06/14 05:04:54;;;;;;;6.73;5.53;;;12.60;99.90;;;;;;5011614;28;20216;-34
2023/06/14 05:07:20;;;;;;;6.93;6.07;;;12.60;99.90;;;;;;5008937;28;20223;-33
2023/06/14 05:09:48;;;;;;;10.37;5.77;;;12.70;99.90;;;;;;5009299;28;20211;-35
2023/06/14 05:12:18;;;;;;;6.40;5.80;;;12.70;99.90;;;;;;5005407;28;20181;-35
2023/06/14 05:14:45;;;;;;;6.87;5.83;;;12.80;99.90;;;;;;5014463;28;20279;-35
2023/06/14 05:17:11;;;;;;;6.90;5.80;;;12.90;99.90;;;;;;5003810;28;20205;-35
2023/06/14 05:19:37;;;;;;;7.63;5.67;;;12.90;99.90;;;;;;5003546;28;20186;-33
2023/06/14 05:22:03;;;;;;;8.07;5.50;;;13.00;99.90;;;;;;4995820;28;20184;-35
2023/06/14 05:24:32;;;;;;;6.97;5.50;;;13.10;99.90;;;;;;5014257;28;20191;-35
2023/06/14 05:26:57;;;;;;;6.73;5.47;;;13.20;99.90;;;;;;5029983;28;20288;-36
2023/06/14 05:29:23;;;;;;;6.50;5.77;;;13.30;99.90;;;;;;5022507;28;20219;-33
2023/06/14 05:31:49;;;;;;;7.17;5.53;;;13.40;99.90;;;;;;5038756;28;20171;-35
2023/06/14 05:34:15;;;;;;;7.37;5.93;;;13.50;99.90;;;;;;5023189;28;20198;-33
2023/06/14 05:36:41;;;;;;;10.93;6.07;;;13.60;99.90;;;;;;5030297;28;20206;-33
2023/06/14 05:39:08;;;;;;;7.00;6.27;;;13.70;99.90;;;;;;5013907;28;20201;-33
2023/06/14 05:41:34;;;;;;;10.90;5.80;;;13.70;99.90;;;;;;4994686;28;20195;-37
2023/06/14 05:44:00;;;;;;;7.87;6.07;;;13.90;99.90;;;;;;5001652;28;20194;-33
2023/06/14 05:46:26;;;;;;;8.07;5.83;;;14.20;99.90;;;;;;5017187;28;20289;-37
2023/06/14 05:48:52;;;;;;;6.37;5.77;;;14.40;99.90;;;;;;5012946;28;20205;-34
2023/06/14 05:51:18;;;;;;;7.57;6.17;;;14.50;99.90;;;;;;5000591;28;20216;-34
2023/06/14 05:53:50;;;;;;;8.73;6.27;;;14.60;99.90;;;;;;5024920;28;20192;-35
2023/06/14 05:56:17;;;;;;;7.23;5.83;;;14.80;99.90;;;;;;5005842;28;20205;-33
2023/06/14 05:58:44;;;;;;;10.33;6.33;;;15.10;99.90;;;;;;5011399;28;20187;-36
2023/06/14 06:01:11;;;;;;;5.93;5.10;;;15.20;99.90;;;;;;5027646;28;20186;-38
2023/06/14 06:03:37;;;;;;;8.30;6.30;;;15.40;99.90;;;;;;5013660;28;20182;-34
2023/06/14 06:06:06;;;;;;;6.43;5.53;;;15.50;99.90;;;;;;5003828;28;20214;-33
2023/06/14 06:08:38;;;;;;;6.90;5.77;;;15.70;99.90;;;;;;5017942;28;20191;-34
2023/06/14 06:11:05;;;;;;;7.03;5.53;;;15.80;99.90;;;;;;5015718;28;20171;-34
2023/06/14 06:13:32;;;;;;;9.00;6.43;;;15.90;99.90;;;;;;5029892;28;20192;-36
2023/06/14 06:15:59;;;;;;;8.67;5.97;;;16.00;99.90;;;;;;5031671;28;20203;-35
2023/06/14 06:18:25;;;;;;;6.27;5.67;;;16.20;99.90;;;;;;5025037;28;20214;-32
2023/06/14 06:20:51;;;;;;;6.67;5.70;;;16.30;99.90;;;;;;5029897;28;20179;-36
2023/06/14 06:23:17;;;;;;;9.87;6.00;;;16.50;99.90;;;;;;5025092;28;20179;-32
2023/06/14 06:25:43;;;;;;;9.60;5.60;;;16.70;99.90;;;;;;5027250;28;20266;-41
2023/06/14 06:28:09;;;;;;;8.80;5.33;;;17.00;99.90;;;;;;5006933;28;20181;-41
2023/06/14 06:30:36;;;;;;;10.27;6.30;;;17.20;99.90;;;;;;5011272;28;20215;-42
2023/06/14 06:33:05;;;;;;;7.40;6.43;;;17.40;99.90;;;;;;5005400;28;20174;-40
2023/06/14 06:35:32;;;;;;;8.33;5.67;;;17.60;99.90;;;;;;5011977;28;20179;-43
2023/06/14 06:38:00;;;;;;;7.37;5.90;;;17.70;99.90;;;;;;5015498;28;20210;-42
2023/06/14 06:40:26;;;;;;;8.97;6.10;;;17.70;99.90;;;;;;4997341;28;20265;-42
2023/06/14 06:42:54;;;;;;;6.40;5.80;;;17.80;99.90;;;;;;4997633;28;20281;-42
2023/06/14 06:45:21;;;;;;;7.23;5.60;;;17.90;99.90;;;;;;5006559;28;20241;-41
2023/06/14 06:47:47;;;;;;;7.75;5.55;;;18.10;99.90;;;;;;5031340;28;20210;-43
2023/06/14 06:50:13;;;;;;;7.77;5.87;;;18.40;99.90;;;;;;4997255;28;20210;-42
2023/06/14 06:52:38;;;;;;;7.70;5.63;;;18.50;99.90;;;;;;5006632;28;20183;-35
2023/06/14 06:55:05;;;;;;;8.25;5.70;;;18.50;99.90;;;;;;5020207;28;20189;-39
2023/06/14 06:57:32;;;;;;;8.07;5.55;;;18.60;99.90;;;;;;5018050;28;20210;-39
2023/06/14 06:59:58;;;;;;;6.40;5.77;;;18.70;99.90;;;;;;5016170;28;20189;-35
2023/06/14 07:02:26;;;;;;;7.03;5.43;;;18.80;99.90;;;;;;5013714;28;20282;-33
2023/06/14 07:04:55;;;;;;;8.55;5.63;;;19.00;99.90;;;;;;5032925;28;20192;-34
2023/06/14 07:07:21;;;;;;;7.53;5.63;;;19.20;99.90;;;;;;4999176;28;20276;-35
2023/06/14 07:09:47;;;;;;;7.10;5.13;;;19.40;99.90;;;;;;5007225;28;20207;-34
2023/06/14 07:12:15;;;;;;;8.85;5.47;;;19.60;99.90;;;;;;4999055;28;20190;-34
2023/06/14 07:14:41;;;;;;;7.25;6.05;;;19.70;99.90;;;;;;5024514;28;20190;-34
2023/06/14 07:17:08;;;;;;;6.78;5.68;;;19.80;99.90;;;;;;5006488;28;20215;-33
2023/06/14 07:19:39;;;;;;;6.65;5.70;;;19.80;99.90;;;;;;5019172;28;20186;-33
2023/06/14 07:22:08;;;;;;;6.05;5.32;;;19.70;99.90;;;;;;5019440;28;20189;-34
2023/06/14 07:24:36;;;;;;;6.97;6.28;;;19.70;99.90;;;;;;5010818;28;20273;-35
2023/06/14 07:27:04;;;;;;;7.28;5.60;;;19.70;99.90;;;;;;5018782;28;20237;-36
2023/06/14 07:29:30;;;;;;;6.88;5.15;;;19.70;99.90;;;;;;5003083;28;20211;-35
2023/06/14 07:31:56;;;;;;;7.35;5.32;;;19.80;99.90;;;;;;5006817;28;20187;-33
2023/06/14 07:34:22;;;;;;;6.70;5.90;;;20.10;99.90;;;;;;5007677;28;20198;-33
2023/06/14 07:36:50;;;;;;;6.03;5.32;;;20.30;99.90;;;;;;5033193;28;20289;-36
2023/06/14 07:39:16;;;;;;;6.38;5.32;;;20.40;99.90;;;;;;5022464;28;20186;-39
2023/06/14 07:41:49;;;;;;;6.10;4.70;;;20.60;99.90;;;;;;5015806;28;20179;-38
2023/06/14 07:44:17;;;;;;;5.97;5.28;;;20.70;99.90;;;;;;5032135;28;20187;-37
2023/06/14 07:46:43;;;;;;;5.93;5.38;;;20.90;99.90;;;;;;5004812;28;20194;-39
2023/06/14 07:49:09;;;;;;;6.85;5.05;;;21.00;99.90;;;;;;5011651;28;20213;-38
2023/06/14 07:51:35;;;;;;;5.60;5.05;;;21.00;99.90;;;;;;5017269;28;20193;-38
2023/06/14 07:54:02;;;;;;;6.75;5.07;;;21.30;99.90;;;;;;5010246;28;20209;-41
2023/06/14 07:56:27;;;;;;;7.50;5.15;;;21.50;99.90;;;;;;5034112;28;20206;-41
2023/06/14 07:58:53;;;;;;;5.78;4.95;;;21.60;99.90;;;;;;5034514;28;20191;-37
2023/06/14 08:01:20;;;;;;;5.88;5.30;;;21.80;99.90;;;;;;5032049;28;20186;-40
2023/06/14 08:03:45;;;;;;;5.97;5.38;;;21.90;99.90;;;;;;5010306;28;20189;-36
2023/06/14 08:06:12;;;;;;;5.32;4.82;;;22.00;99.90;;;;;;5028920;28;20211;-39
2023/06/14 08:08:37;;;;;;;5.40;4.72;;;22.30;99.90;;;;;;5009280;28;20182;-41
2023/06/14 08:11:03;;;;;;;5.63;4.85;;;22.50;99.90;;;;;;5008182;28;20182;-41
2023/06/14 08:13:30;;;;;;;6.72;5.57;;;22.60;99.90;;;;;;5029933;28;20182;-37
2023/06/14 08:15:57;;;;;;;5.22;4.63;;;22.40;99.90;;;;;;5033746;28;20239;-39
2023/06/14 08:18:23;;;;;;;6.47;5.18;;;22.40;99.90;;;;;;5033295;28;20178;-36
2023/06/14 08:20:50;;;;;;;9.45;5.22;;;22.50;99.90;;;;;;5030599;28;20228;-35
2023/06/14 08:23:18;;;;;;;5.93;5.20;;;22.70;99.90;;;;;;5029695;28;20262;-40
2023/06/14 08:25:45;;;;;;;6.57;4.88;;;22.80;99.90;;;;;;5011726;28;20280;-38
2023/06/14 08:28:11;;;;;;;6.15;4.43;;;23.00;99.90;;;;;;5024713;28;20211;-39
2023/06/14 08:30:37;;;;;;;6.85;4.82;;;23.20;99.60;;;;;;5004457;28;20241;-37
2023/06/14 08:33:03;;;;;;;7.22;4.65;;;23.40;98.90;;;;;;5020117;28;20175;-34
2023/06/14 08:35:29;;;;;;;8.75;4.80;;;23.60;98.90;;;;;;5031616;28;20183;-40
2023/06/14 08:37:55;;;;;;;7.35;4.85;;;23.90;98.30;;;;;;5029945;28;20202;-40
2023/06/14 08:40:23;;;;;;;5.72;4.57;;;23.90;98.70;;;;;;5014908;28;20202;-40
2023/06/14 08:42:54;;;;;;;5.60;4.15;;;24.00;98.00;;;;;;5013130;28;20186;-41
2023/06/14 08:45:21;;;;;;;5.13;4.25;;;24.20;96.60;;;;;;4995443;28;20187;-39
2023/06/14 08:47:51;;;;;;;6.30;4.28;;;24.30;95.50;;;;;;5004242;28;20298;-38
2023/06/14 08:50:31;;;;;;;7.65;4.25;;;24.60;93.80;;;;;;5014755;28;20214;-39
2023/06/14 08:53:01;;;;;;;6.57;4.63;;;24.80;95.10;;;;;;5006190;28;20186;-37
2023/06/14 08:55:29;;;;;;;4.70;4.30;;;25.00;95.00;;;;;;5020386;28;20190;-39
2023/06/14 08:57:59;;;;;;;5.20;3.90;;;25.10;93.70;;;;;;5006183;28;20207;-37
2023/06/14 09:00:26;;;;;;;5.95;4.03;;;25.20;93.30;;;;;;5030816;28;20179;-36
2023/06/14 09:02:57;;;;;;;5.93;3.50;;;25.40;92.80;;;;;;5028394;28;20273;-39
2023/06/14 09:05:26;;;;;;;6.30;3.80;;;25.60;91.60;;;;;;5016019;28;20179;-38
2023/06/14 09:07:55;;;;;;;4.40;4.00;;;25.60;92.10;;;;;;5010361;28;20219;-38
2023/06/14 09:10:21;;;;;;;4.97;4.00;;;25.70;92.40;;;;;;5012947;28;20207;-42
2023/06/14 09:12:47;;;;;;;6.50;4.28;;;26.00;91.40;;;;;;5008764;28;20187;-39
2023/06/14 09:15:14;;;;;;;5.13;3.60;;;26.10;91.50;;;;;;5003611;28;20186;-40
2023/06/14 09:17:40;;;;;;;4.78;3.95;;;26.30;90.20;;;;;;5006774;28;20210;-40
2023/06/14 09:20:18;;;;;;;5.50;3.90;;;26.30;88.60;;;;;;5029696;28;20195;-39
2023/06/14 09:22:47;;;;;;;6.20;4.22;;;26.40;88.80;;;;;;5013910;28;20277;-42
2023/06/14 09:25:15;;;;;;;4.60;4.10;;;26.50;88.70;;;;;;5012078;28;20198;-40
2023/06/14 09:27:42;;;;;;;5.40;4.18;;;26.60;89.00;;;;;;5004853;28;20203;-37
2023/06/14 09:30:10;;;;;;;7.10;4.60;;;26.50;89.00;;;;;;4998964;28;20195;-42
2023/06/14 09:32:40;;;;;;;4.88;4.38;;;26.60;90.10;;;;;;5030776;28;20190;-40
2023/06/14 09:35:07;;;;;;;8.23;4.50;;;26.70;89.80;;;;;;5022668;28;20182;-38
2023/06/14 09:37:34;;;;;;;9.65;4.55;;;26.40;90.00;;;;;;5013547;28;20210;-40
2023/06/14 09:40:00;;;;;;;6.00;4.00;;;26.40;89.10;;;;;;5013960;28;20186;-42
2023/06/14 09:42:27;;;;;;;6.88;4.22;;;26.50;87.30;;;;;;5006834;28;20195;-40
2023/06/14 09:44:54;;;;;;;5.55;4.07;;;26.60;87.20;;;;;;5001199;28;20183;-40
2023/06/14 09:47:21;;;;;;;9.95;4.30;;;26.70;86.50;;;;;;5005808;28;20293;-39
2023/06/14 09:49:47;;;;;;;5.72;3.88;;;26.80;87.90;;;;;;5023065;28;20202;-40
2023/06/14 09:52:18;;;;;;;4.82;4.30;;;27.00;84.80;;;;;;5027273;28;20224;-38
2023/06/14 09:54:47;;;;;;;4.50;4.03;;;27.10;85.80;;;;;;5012991;28;20182;-41
2023/06/14 09:57:15;;;;;;;4.53;4.13;;;27.30;85.10;;;;;;5039010;28;20226;-42
2023/06/14 09:59:44;;;;;;;5.05;3.88;;;27.40;84.50;;;;;;5029197;28;20194;-41
2023/06/14 10:02:32;;;;;;;5.22;4.00;;;27.20;81.70;;;;;;5012030;28;20175;-41
2023/06/14 10:05:05;;;;;;;4.85;4.03;;;27.40;84.30;;;;;;4997004;28;20228;-41
2023/06/14 10:07:37;;;;;;;4.90;4.30;;;27.60;82.40;;;;;;5023517;28;20233;-38
2023/06/14 10:10:03;;;;;;;4.80;4.03;;;27.80;82.00;;;;;;4998244;28;20207;-42
2023/06/14 10:12:30;;;;;;;4.75;4.32;;;28.00;83.40;;;;;;5008439;28;20186;-41
2023/06/14 10:14:57;;;;;;;6.60;4.45;;;27.90;81.70;;;;;;5008477;28;20274;-35
2023/06/14 10:17:26;;;;;;;5.68;4.22;;;28.00;82.40;;;;;;5013249;28;20241;-39
2023/06/14 10:20:03;;;;;;;5.38;4.57;;;27.90;80.90;;;;;;5013643;28;20179;-37
2023/06/14 10:22:45;;;;;;;6.28;4.50;;;27.60;81.10;;;;;;5011602;28;20190;-40
2023/06/14 10:25:28;;;;;;;4.75;4.22;;;27.60;82.20;;;;;;5007348;28;20187;-39
2023/06/14 10:28:16;;;;;;;4.97;4.20;;;27.60;80.40;;;;;;5011140;28;20202;-42
2023/06/14 10:31:04;;;;;;;4.55;4.05;;;27.50;81.80;;;;;;5019385;28;20211;-39
2023/06/14 10:33:35;;;;;;;4.40;4.00;;;27.40;81.00;;;;;;4993778;28;20183;-42
2023/06/14 10:36:33;;;;;;;5.53;4.15;;;27.50;81.40;;;;;;4997022;28;20214;-42
2023/06/14 10:39:05;;;;;;;5.72;3.90;;;27.90;79.50;;;;;;4995255;28;20241;-39
2023/06/14 10:41:37;;;;;;;6.43;4.00;;;27.90;79.10;;;;;;5028659;28;20220;-40
2023/06/14 10:44:21;;;;;;;6.40;4.43;;;27.90;77.60;;;;;;5011549;28;20189;-39
2023/06/14 10:46:53;;;;;;;5.65;4.40;;;28.10;77.20;;;;;;5010270;28;20206;-41
2023/06/14 10:49:19;;;;;;;6.60;4.30;;;27.90;76.10;;;;;;5011558;28;20206;-37
2023/06/14 10:51:52;;;;;;;7.93;4.28;;;28.10;77.50;;;;;;5029534;28;20286;-37
2023/06/14 10:54:23;;;;;;;5.07;4.00;;;28.30;77.90;;;;;;5002008;28;20183;-37
2023/06/14 10:56:51;;;;;;;6.00;3.85;;;28.50;76.90;;;;;;5004350;28;20198;-41
2023/06/14 10:59:18;;;;;;;4.63;4.18;;;28.80;76.80;;;;;;5015729;28;20201;-42
2023/06/14 11:02:14;;;;;;;4.80;4.10;;;28.70;75.90;;;;;;5004476;28;20191;-40
2023/06/14 11:04:53;;;;;;;5.88;4.30;;;28.80;74.70;;;;;;5024017;28;20218;-43
2023/06/14 11:07:53;;;;;;;4.50;4.10;;;28.90;74.90;;;;;;5001489;28;20215;-36
2023/06/14 11:10:40;;;;;;;5.15;3.97;;;28.90;73.90;;;;;;5010223;28;20252;-39
2023/06/14 11:13:07;;;;;;;4.22;3.83;;;29.10;74.30;;;;;;5012725;28;20182;-39
2023/06/14 11:15:35;;;;;;;4.47;3.75;;;29.10;76.60;;;;;;5026692;28;20186;-41
2023/06/14 11:18:05;;;;;;;5.95;3.90;;;29.20;75.30;;;;;;5010333;28;20198;-41
2023/06/14 11:20:33;;;;;;;6.43;4.15;;;29.40;74.70;;;;;;5010619;28;20222;-40
2023/06/14 11:23:00;;;;;;;5.00;4.30;;;29.00;74.10;;;;;;5007507;28;20186;-37
2023/06/14 11:25:28;;;;;;;5.13;4.30;;;29.10;75.90;;;;;;5017899;28;20190;-41
2023/06/14 11:27:55;;;;;;;4.95;4.45;;;29.10;75.40;;;;;;5025060;28;20256;-40
2023/06/14 11:30:21;;;;;;;4.50;4.10;;;29.20;74.90;;;;;;5012934;28;20203;-39
2023/06/14 11:32:51;;;;;;;5.30;4.35;;;29.30;75.20;;;;;;5003762;28;20197;-40
2023/06/14 11:35:18;;;;;;;6.90;4.40;;;28.90;74.40;;;;;;5014444;28;20245;-41
2023/06/14 11:37:44;;;;;;;7.40;4.40;;;28.50;76.90;;;;;;5019086;28;20199;-41
2023/06/14 11:40:11;;;;;;;5.18;4.40;;;28.80;76.10;;;;;;5004765;28;20210;-41
2023/06/14 11:42:39;;;;;;;5.43;4.30;;;28.80;76.40;;;;;;5025502;28;20194;-40
2023/06/14 11:45:09;;;;;;;6.53;4.50;;;28.80;73.80;;;;;;5007734;28;20182;-42
2023/06/14 11:47:36;;;;;;;5.18;4.38;;;28.60;74.40;;;;;;5011051;28;20191;-43
2023/06/14 11:50:04;;;;;;;4.50;4.10;;;28.60;73.90;;;;;;5028116;28;20203;-42
2023/06/14 11:52:31;;;;;;;4.60;4.20;;;28.70;72.90;;;;;;5027336;28;20179;-41
2023/06/14 11:54:58;;;;;;;7.47;4.35;;;28.70;73.80;;;;;;5023844;28;20181;-42
2023/06/14 11:57:26;;;;;;;5.13;4.38;;;28.50;74.10;;;;;;5010312;28;20199;-42
2023/06/14 11:59:54;;;;;;;5.00;4.13;;;28.60;75.30;;;;;;5019539;28;20266;-42
2023/06/14 12:02:22;;;;;;;5.25;4.20;;;28.80;77.10;;;;;;5014078;28;20282;-42
2023/06/14 12:04:50;;;;;;;4.63;4.22;;;29.00;76.10;;;;;;5011117;28;20270;-44
2023/06/14 12:07:19;;;;;;;5.18;4.22;;;29.00;76.30;;;;;;5007296;28;20215;-43
2023/06/14 12:09:59;;;;;;;5.10;4.05;;;28.70;76.90;;;;;;5006228;28;20293;-43
2023/06/14 12:12:38;;;;;;;4.30;3.90;;;28.60;75.70;;;;;;5037661;28;20211;-42
2023/06/14 12:15:11;;;;;;;7.03;4.18;;;28.60;75.40;;;;;;5028147;28;20191;-42
2023/06/14 12:17:43;;;;;;;5.43;4.07;;;28.70;75.70;;;;;;5010732;28;20272;-44
2023/06/14 12:20:21;;;;;;;5.47;4.20;;;29.00;74.50;;;;;;5031843;28;20186;-41
2023/06/14 12:23:00;;;;;;;5.32;4.50;;;29.30;74.00;;;;;;5002472;28;20198;-42
2023/06/14 12:25:36;;;;;;;4.97;4.30;;;29.60;74.80;;;;;;5025559;28;20175;-42
2023/06/14 12:28:14;;;;;;;6.28;4.47;;;29.40;74.20;;;;;;5015151;28;20203;-43
2023/06/14 12:30:42;;;;;;;5.55;4.22;;;29.10;74.60;;;;;;5009167;28;20210;-43
2023/06/14 12:33:11;;;;;;;6.55;4.60;;;28.50;74.90;;;;;;5028299;28;20179;-42
2023/06/14 12:35:38;;;;;;;5.30;4.22;;;28.20;74.40;;;;;;5004197;28;20179;-44
2023/06/14 12:38:05;;;;;;;5.03;4.47;;;28.30;74.80;;;;;;5004603;28;20660;-43
2023/06/14 12:40:43;;;;;;;4.72;4.30;;;28.30;75.10;;;;;;5020882;28;20183;-42
2023/06/14 12:43:11;;;;;;;4.60;4.20;;;28.30;74.80;;;;;;5005088;28;20253;-42
2023/06/14 12:45:44;;;;;;;6.55;4.20;;;28.40;75.70;;;;;;5020114;28;20179;-44
2023/06/14 12:48:10;;;;;;;4.57;4.18;;;28.80;75.30;;;;;;5012322;28;20183;-43
2023/06/14 12:50:36;;;;;;;5.20;4.47;;;29.00;73.10;;;;;;5003401;28;20301;-44
2023/06/14 12:53:03;;;;;;;4.82;4.30;;;29.30;73.90;;;;;;5005890;28;20246;-42